createdAt,value
2022-10-28T00:01:03.784Z,14.23
2022-10-28T00:03:31.905Z,8.90
2022-10-28T00:06:05.012Z,20.52
2022-10-28T00:08:33.676Z,14.82
2022-10-28T00:11:07.035Z,15.90
2022-10-28T00:13:35.503Z,12.27
2022-10-28T00:16:08.968Z,16.98
2022-10-28T00:18:37.467Z,15.20
2022-10-28T00:21:09.136Z,11.73
2022-10-28T00:23:37.115Z,14.25
2022-10-28T00:26:06.976Z,16.85
2022-10-28T00:28:34.989Z,12.40
2022-10-28T00:31:07.426Z,15.63
2022-10-28T00:33:35.487Z,11.30
2022-10-28T00:36:16.420Z,11.77
2022-10-28T00:38:45.779Z,12.15
2022-10-28T00:41:16.141Z,11.55
2022-10-28T00:43:46.324Z,14.15
2022-10-28T00:46:20.677Z,13.98
2022-10-28T00:48:53.125Z,13.98
2022-10-28T00:51:25.284Z,13.18
2022-10-28T00:53:56.011Z,13.88
2022-10-28T00:56:27.478Z,12.73
2022-10-28T00:58:58.999Z,10.55
2022-10-28T01:01:27.084Z,12.20
2022-10-28T01:03:56.873Z,14.57
2022-10-28T01:06:29.063Z,12.85
2022-10-28T01:08:59.924Z,9.68
2022-10-28T01:11:43.287Z,12.20
2022-10-28T01:14:31.077Z,9.35
2022-10-28T01:17:18.458Z,10.63
2022-10-28T01:20:39.677Z,14.05
2022-10-28T01:23:17.342Z,13.07
2022-10-28T01:26:04.356Z,8.68
2022-10-28T01:29:03.431Z,9.25
2022-10-28T01:31:40.100Z,12.82
2022-10-28T01:34:15.116Z,13.63
2022-10-28T01:36:53.990Z,14.05
2022-10-28T01:39:29.985Z,14.70
2022-10-28T01:42:08.676Z,12.93
2022-10-28T01:44:46.429Z,12.98
2022-10-28T01:47:20.806Z,12.82
2022-10-28T01:49:52.210Z,14.15
2022-10-28T01:52:24.540Z,12.75
2022-10-28T01:55:02.403Z,10.23
2022-10-28T01:57:32.983Z,12.10
2022-10-28T02:00:02.775Z,15.52
2022-10-28T02:02:42.654Z,13.80
2022-10-28T02:05:39.268Z,10.77
2022-10-28T02:08:34.693Z,10.95
2022-10-28T02:11:17.049Z,13.23
2022-10-28T02:13:52.971Z,8.63
2022-10-28T02:16:29.209Z,15.38
2022-10-28T02:19:04.655Z,10.15
2022-10-28T02:21:44.643Z,13.02
2022-10-28T02:24:19.818Z,12.50
2022-10-28T02:26:54.998Z,17.70
2022-10-28T02:29:31.703Z,14.85
2022-10-28T02:32:04.112Z,15.95
2022-10-28T02:34:37.551Z,9.80
2022-10-28T02:37:12.454Z,10.98
2022-10-28T02:39:44.223Z,10.10
2022-10-28T02:42:16.531Z,15.13
2022-10-28T02:44:49.694Z,14.57
2022-10-28T02:47:21.831Z,12.18
2022-10-28T02:49:56.389Z,12.18
2022-10-28T02:52:29.532Z,11.70
2022-10-28T02:55:00.422Z,10.95
2022-10-28T02:57:32.447Z,13.73
2022-10-28T03:00:02.327Z,10.55
2022-10-28T03:02:30.281Z,10.73
2022-10-28T03:04:59.520Z,15.15
2022-10-28T03:07:27.481Z,11.70
2022-10-28T03:09:55.567Z,12.38
2022-10-28T03:12:23.562Z,11.77
2022-10-28T03:14:51.546Z,12.20
2022-10-28T03:17:19.511Z,16.27
2022-10-28T03:19:47.378Z,13.23
2022-10-28T03:22:16.893Z,12.38
2022-10-28T03:24:44.768Z,16.73
2022-10-28T03:27:13.995Z,18.45
2022-10-28T03:29:45.010Z,15.77
2022-10-28T03:32:14.506Z,19.52
2022-10-28T03:34:42.463Z,11.68
2022-10-28T03:37:10.732Z,13.60
2022-10-28T03:39:40.390Z,12.88
2022-10-28T03:42:08.362Z,7.32
2022-10-28T03:44:36.244Z,16.52
2022-10-28T03:47:04.262Z,14.23
2022-10-28T03:49:32.155Z,15.77
2022-10-28T03:52:00.089Z,14.10
2022-10-28T03:54:27.889Z,10.27
2022-10-28T03:56:57.140Z,11.15
2022-10-28T03:59:25.131Z,10.50
2022-10-28T04:01:53.118Z,14.43
2022-10-28T04:04:21.489Z,15.30
2022-10-28T04:06:49.361Z,14.63
2022-10-28T04:09:17.245Z,10.70
2022-10-28T04:11:45.277Z,9.68
2022-10-28T04:14:14.690Z,13.23
2022-10-28T04:16:42.552Z,14.90
2022-10-28T04:19:10.472Z,12.05
2022-10-28T04:21:38.372Z,13.00
2022-10-28T04:24:07.186Z,15.00
2022-10-28T04:26:35.203Z,11.82
2022-10-28T04:29:03.072Z,17.30
2022-10-28T04:31:32.369Z,16.08
2022-10-28T04:34:00.279Z,12.63
2022-10-28T04:36:28.085Z,11.38
2022-10-28T04:38:56.086Z,10.07
2022-10-28T04:41:23.977Z,12.52
2022-10-28T04:43:51.800Z,10.85
2022-10-28T04:46:19.640Z,13.00
2022-10-28T04:48:49.380Z,15.32
2022-10-28T04:51:17.431Z,18.13
2022-10-28T04:53:45.451Z,14.57
2022-10-28T04:56:13.416Z,12.82
2022-10-28T04:58:42.259Z,13.05
2022-10-28T05:01:11.860Z,18.02
2022-10-28T05:03:40.057Z,14.10
2022-10-28T05:06:09.420Z,15.77
2022-10-28T05:08:37.315Z,19.90
2022-10-28T05:11:05.392Z,14.25
2022-10-28T05:13:33.634Z,12.73
2022-10-28T05:16:01.798Z,16.65
2022-10-28T05:18:29.698Z,13.65
2022-10-28T05:20:57.641Z,13.32
2022-10-28T05:23:27.323Z,15.50
2022-10-28T05:25:58.120Z,14.23
2022-10-28T05:28:26.091Z,11.35
2022-10-28T05:30:54.012Z,17.45
2022-10-28T05:33:21.937Z,14.93
2022-10-28T05:35:49.909Z,18.20
2022-10-28T05:38:18.038Z,13.55
2022-10-28T05:40:47.406Z,20.90
2022-10-28T05:43:15.365Z,17.95
2022-10-28T05:45:43.224Z,15.05
2022-10-28T05:48:11.102Z,15.35
2022-10-28T05:50:38.963Z,11.15
2022-10-28T05:53:06.793Z,19.80
2022-10-28T05:55:35.296Z,9.15
2022-10-28T05:58:04.527Z,14.98
2022-10-28T06:00:33.031Z,16.05
2022-10-28T06:03:09.148Z,13.88
2022-10-28T06:05:37.292Z,12.98
2022-10-28T06:08:06.220Z,16.92
2022-10-28T06:10:34.577Z,15.18
2022-10-28T06:13:02.234Z,11.68
2022-10-28T06:15:30.302Z,17.67
2022-10-28T06:17:58.360Z,17.15
2022-10-28T06:20:26.460Z,14.27
2022-10-28T06:22:55.465Z,13.00
2022-10-28T06:25:25.600Z,17.13
2022-10-28T06:27:54.625Z,13.27
2022-10-28T06:30:25.265Z,15.60
2022-10-28T06:32:56.472Z,23.80
2022-10-28T06:35:24.324Z,16.25
2022-10-28T06:37:53.958Z,14.75
2022-10-28T06:40:22.210Z,22.20
2022-10-28T06:42:56.816Z,19.55
2022-10-28T06:45:26.481Z,9.77
2022-10-28T06:47:57.441Z,13.10
2022-10-28T06:50:25.417Z,14.50
2022-10-28T06:52:53.743Z,13.57
2022-10-28T06:55:21.591Z,7.70
2022-10-28T06:57:49.528Z,12.55
2022-10-28T07:00:17.966Z,15.52
2022-10-28T07:02:51.877Z,19.48
2022-10-28T07:05:19.981Z,15.82
2022-10-28T07:07:47.839Z,17.83
2022-10-28T07:10:16.173Z,21.48
2022-10-28T07:12:44.091Z,12.48
2022-10-28T07:15:12.564Z,14.38
2022-10-28T07:17:40.554Z,17.15
2022-10-28T07:20:11.464Z,11.30
2022-10-28T07:22:39.305Z,12.55
2022-10-28T07:25:08.225Z,15.20
2022-10-28T07:27:36.191Z,15.50
2022-10-28T07:30:04.146Z,12.65
2022-10-28T07:32:32.874Z,10.65
2022-10-28T07:35:00.704Z,11.82
2022-10-28T07:37:31.073Z,17.50
2022-10-28T07:39:58.935Z,13.60
2022-10-28T07:42:26.954Z,15.70
2022-10-28T07:44:54.736Z,7.13
2022-10-28T07:47:22.574Z,15.70
2022-10-28T07:49:50.387Z,12.00
2022-10-28T07:52:18.465Z,14.48
2022-10-28T07:54:47.922Z,18.65
2022-10-28T07:57:15.717Z,11.43
2022-10-28T07:59:43.509Z,13.00
2022-10-28T08:02:17.517Z,17.20
2022-10-28T08:04:45.575Z,13.38
2022-10-28T08:07:14.016Z,11.57
2022-10-28T08:09:42.291Z,9.88
2022-10-28T08:12:14.717Z,21.13
2022-10-28T08:14:43.238Z,18.17
2022-10-28T08:17:11.142Z,16.75
2022-10-28T08:19:38.948Z,15.10
2022-10-28T08:22:07.739Z,10.30
2022-10-28T08:24:36.576Z,13.32
2022-10-28T08:27:04.591Z,12.52
2022-10-28T08:29:33.912Z,14.95
2022-10-28T08:32:01.888Z,17.23
2022-10-28T08:34:30.941Z,14.07
2022-10-28T08:36:58.968Z,15.27
2022-10-28T08:39:26.794Z,13.45
2022-10-28T08:42:08.820Z,17.35
2022-10-28T08:44:57.947Z,13.73
2022-10-28T08:47:39.308Z,10.75
2022-10-28T08:50:14.299Z,15.52
2022-10-28T08:52:48.727Z,13.90
2022-10-28T08:55:21.881Z,14.38
2022-10-28T08:57:53.890Z,13.15
2022-10-28T09:00:25.523Z,13.10
2022-10-28T09:03:18.276Z,18.00
2022-10-28T09:05:49.953Z,17.42
2022-10-28T09:08:24.505Z,15.48
2022-10-28T09:11:04.619Z,18.00
2022-10-28T09:13:47.111Z,11.68
2022-10-28T09:16:30.605Z,11.13
2022-10-28T09:19:04.054Z,9.77
2022-10-28T09:21:37.656Z,14.60
2022-10-28T09:24:18.571Z,12.57
2022-10-28T09:26:55.445Z,14.27
2022-10-28T09:29:54.890Z,12.82
2022-10-28T09:32:35.131Z,13.88
2022-10-28T09:35:07.344Z,9.63
2022-10-28T09:37:40.923Z,12.48
2022-10-28T09:40:18.550Z,11.85
2022-10-28T09:42:56.173Z,17.35
2022-10-28T09:45:32.521Z,13.23
2022-10-28T09:48:09.730Z,11.82
2022-10-28T09:50:40.627Z,14.57
2022-10-28T09:53:20.567Z,13.50
2022-10-28T09:55:55.937Z,10.93
2022-10-28T09:58:30.006Z,14.50
2022-10-28T10:01:00.420Z,15.07
2022-10-28T10:03:32.973Z,13.48
2022-10-28T10:06:15.189Z,16.77
2022-10-28T10:08:44.608Z,13.63
2022-10-28T10:11:23.388Z,8.85
2022-10-28T10:13:52.707Z,13.73
2022-10-28T10:16:26.100Z,18.13
2022-10-28T10:19:01.894Z,12.93
2022-10-28T10:21:45.621Z,13.05
2022-10-28T10:24:27.091Z,14.68
2022-10-28T10:26:55.470Z,10.57
2022-10-28T10:29:23.642Z,9.73
2022-10-28T10:32:09.834Z,14.40
2022-10-28T10:34:39.149Z,9.75
2022-10-28T10:37:17.444Z,11.55
2022-10-28T10:39:45.209Z,10.18
2022-10-28T10:42:17.971Z,22.13
2022-10-28T10:44:46.246Z,10.60
2022-10-28T10:47:20.867Z,12.52
2022-10-28T10:50:22.968Z,13.27
2022-10-28T10:52:53.806Z,19.27
2022-10-28T10:55:30.465Z,15.77
2022-10-28T10:57:58.891Z,14.75
2022-10-28T11:00:32.119Z,17.67
2022-10-28T11:03:01.956Z,10.35
2022-10-28T11:05:35.913Z,14.20
2022-10-28T11:08:07.731Z,12.23
2022-10-28T11:10:36.356Z,14.27
2022-10-28T11:13:26.602Z,10.70
2022-10-28T11:16:00.687Z,15.40
2022-10-28T11:18:31.650Z,11.57
2022-10-28T11:21:08.510Z,16.27
2022-10-28T11:23:50.192Z,14.35
2022-10-28T11:26:20.512Z,20.15
2022-10-28T11:29:10.883Z,8.73
2022-10-28T11:31:57.665Z,13.70
2022-10-28T11:34:41.621Z,12.43
2022-10-28T11:37:19.891Z,15.05
2022-10-28T11:39:59.390Z,15.32
2022-10-28T11:42:39.051Z,16.30
2022-10-28T11:45:14.520Z,13.68
2022-10-28T11:47:57.119Z,13.43
2022-10-28T11:50:36.609Z,14.13
2022-10-28T11:53:28.832Z,14.80
2022-10-28T11:56:04.664Z,17.88
2022-10-28T11:58:42.157Z,15.98
2022-10-28T12:01:29.799Z,15.52
2022-10-28T12:04:13.348Z,10.48
2022-10-28T12:07:01.441Z,10.63
2022-10-28T12:09:45.698Z,22.10
2022-10-28T12:12:24.413Z,15.30
2022-10-28T12:15:01.592Z,12.77
2022-10-28T12:17:38.247Z,15.60
2022-10-28T12:20:15.897Z,11.13
2022-10-28T12:22:49.122Z,11.13
2022-10-28T12:25:24.292Z,12.80
2022-10-28T12:27:55.644Z,16.88
2022-10-28T12:30:27.350Z,12.80
2022-10-28T12:33:00.200Z,12.20
2022-10-28T12:35:33.166Z,12.25
2022-10-28T12:38:07.503Z,13.50
2022-10-28T12:40:42.588Z,13.48
2022-10-28T12:43:17.131Z,17.25
2022-10-28T12:45:49.272Z,11.15
2022-10-28T12:48:23.682Z,17.10
2022-10-28T12:51:00.083Z,13.02
2022-10-28T12:53:35.556Z,12.13
2022-10-28T12:56:13.207Z,14.40
2022-10-28T12:58:52.277Z,16.17
2022-10-28T13:01:24.340Z,21.02
2022-10-28T13:03:52.843Z,12.68
2022-10-28T13:06:48.688Z,21.60
2022-10-28T13:09:39.156Z,17.35
2022-10-28T13:12:50.551Z,18.42
2022-10-28T13:15:40.249Z,10.43
2022-10-28T13:18:38.212Z,12.13
2022-10-28T13:21:17.812Z,13.73
2022-10-28T13:23:55.686Z,16.50
2022-10-28T13:26:29.675Z,15.43
2022-10-28T13:29:00.848Z,12.07
2022-10-28T13:31:41.125Z,13.90
2022-10-28T13:34:10.558Z,12.68
2022-10-28T13:36:42.827Z,19.48
2022-10-28T13:39:24.562Z,16.00
2022-10-28T13:42:25.607Z,19.70
2022-10-28T13:44:55.370Z,17.85
2022-10-28T13:47:34.445Z,20.15
2022-10-28T13:50:42.117Z,15.73
2022-10-28T13:53:55.289Z,30.92
2022-10-28T13:56:42.472Z,26.00
2022-10-28T13:59:22.639Z,17.73
2022-10-28T14:02:28.476Z,17.60
2022-10-28T14:04:58.656Z,19.58
2022-10-28T14:07:30.205Z,24.38
2022-10-28T14:10:17.614Z,20.05
2022-10-28T14:12:51.724Z,16.98
2022-10-28T14:15:24.294Z,21.42
2022-10-28T14:18:00.994Z,15.38
2022-10-28T14:20:54.851Z,20.30
2022-10-28T14:24:16.600Z,25.95
2022-10-28T14:27:30.758Z,20.48
2022-10-28T14:30:24.167Z,14.75
2022-10-28T14:33:04.111Z,23.42
2022-10-28T14:35:40.243Z,14.00
2022-10-28T14:38:42.039Z,21.40
2022-10-28T14:41:35.580Z,20.30
2022-10-28T14:44:17.348Z,22.70
2022-10-28T14:46:57.294Z,21.42
2022-10-28T14:49:27.343Z,15.68
2022-10-28T14:51:56.074Z,15.95
2022-10-28T14:54:39.792Z,14.05
2022-10-28T14:57:11.394Z,13.52
2022-10-28T14:59:43.200Z,26.98
2022-10-28T15:02:17.559Z,19.05
2022-10-28T15:04:48.414Z,17.83
2022-10-28T15:07:19.325Z,20.20
2022-10-28T15:09:53.455Z,22.50
2022-10-28T15:12:26.664Z,18.27
2022-10-28T15:14:56.448Z,12.07
2022-10-28T15:17:26.363Z,18.80
2022-10-28T15:19:56.073Z,11.57
2022-10-28T15:22:25.785Z,15.70
2022-10-28T15:24:59.256Z,48.80
2022-10-28T15:27:30.470Z,62.60
2022-10-28T15:29:58.589Z,126.55
2022-10-28T15:32:29.653Z,91.63
2022-10-28T15:34:57.714Z,52.78
2022-10-28T15:37:27.932Z,53.15
2022-10-28T15:40:13.717Z,35.15
2022-10-28T15:42:51.362Z,34.70
2022-10-28T15:45:25.583Z,35.80
2022-10-28T15:47:55.342Z,27.40
2022-10-28T15:50:32.995Z,15.88
2022-10-28T15:53:37.722Z,30.90
2022-10-28T15:56:17.639Z,38.17
2022-10-28T15:58:49.993Z,24.08
2022-10-28T16:01:37.978Z,25.23
2022-10-28T16:04:06.706Z,28.58
2022-10-28T16:06:37.243Z,26.40
2022-10-28T16:09:18.206Z,26.15
2022-10-28T16:11:49.305Z,15.00
2022-10-28T16:14:36.827Z,21.58
2022-10-28T16:19:38.744Z,27.92
2022-10-28T16:22:07.509Z,19.70
2022-10-28T16:24:35.660Z,25.83
2022-10-28T16:27:22.942Z,20.27
2022-10-28T16:29:52.765Z,21.80
2022-10-28T16:32:27.690Z,27.10
2022-10-28T16:34:56.994Z,28.65
2022-10-28T16:37:27.583Z,37.80
2022-10-28T16:39:57.670Z,32.88
2022-10-28T16:42:26.177Z,23.33
2022-10-28T16:44:55.454Z,19.85
2022-10-28T16:47:26.598Z,23.95
2022-10-28T16:49:57.362Z,27.00
2022-10-28T16:52:27.511Z,33.95
2022-10-28T16:54:55.753Z,28.60
2022-10-28T16:59:52.158Z,33.65
2022-10-28T17:02:25.449Z,32.42
2022-10-28T17:04:53.601Z,19.98
2022-10-28T17:07:21.507Z,34.60
2022-10-28T17:09:49.390Z,41.10
2022-10-28T17:12:19.230Z,31.27
2022-10-28T17:14:47.318Z,20.17
2022-10-28T17:17:16.089Z,35.40
2022-10-28T17:19:46.477Z,31.90
2022-10-28T17:22:15.173Z,21.85
2022-10-28T17:24:43.110Z,23.45
2022-10-28T17:27:10.915Z,26.38
2022-10-28T17:29:38.939Z,43.40
2022-10-28T17:32:08.572Z,32.60
2022-10-28T17:34:36.579Z,26.40
2022-10-28T17:37:06.034Z,26.25
2022-10-28T17:39:34.083Z,34.70
2022-10-28T17:42:01.928Z,22.83
2022-10-28T17:44:29.750Z,20.75
2022-10-28T17:46:58.366Z,32.10
2022-10-28T17:49:26.406Z,22.83
2022-10-28T17:51:54.676Z,30.52
2022-10-28T17:56:51.926Z,29.02
2022-10-28T17:59:19.849Z,22.40
2022-10-28T18:01:47.804Z,23.05
2022-10-28T18:04:15.858Z,34.97
2022-10-28T18:06:43.879Z,38.63
2022-10-28T18:09:12.728Z,28.52
2022-10-28T18:11:42.048Z,33.72
2022-10-28T18:14:09.869Z,39.03
2022-10-28T18:16:38.437Z,30.73
2022-10-28T18:19:07.711Z,38.42
2022-10-28T18:21:36.112Z,68.90
2022-10-28T18:24:07.196Z,76.63
2022-10-28T18:26:36.763Z,43.72
2022-10-28T18:29:09.881Z,21.77
2022-10-28T18:31:40.510Z,21.40
2022-10-28T18:34:09.493Z,44.45
2022-10-28T18:36:37.912Z,33.90
2022-10-28T18:39:07.785Z,29.15
2022-10-28T18:41:38.327Z,36.53
2022-10-28T18:44:07.577Z,52.20
2022-10-28T18:46:37.513Z,74.47
2022-10-28T18:49:06.228Z,55.67
2022-10-28T18:51:35.180Z,37.30
2022-10-28T18:54:03.547Z,32.80
2022-10-28T18:56:31.662Z,26.90
2022-10-28T18:58:59.984Z,45.95
2022-10-28T19:01:31.603Z,62.88
2022-10-28T19:04:01.598Z,49.55
2022-10-28T19:06:32.434Z,45.85
2022-10-28T19:09:02.610Z,24.95
2022-10-28T19:11:31.679Z,39.80
2022-10-28T19:14:00.474Z,20.35
2022-10-28T19:16:31.881Z,37.55
2022-10-28T19:19:02.482Z,28.77
2022-10-28T19:21:30.438Z,23.08
2022-10-28T19:23:58.276Z,21.52
2022-10-28T19:26:26.192Z,26.60
2022-10-28T19:28:54.170Z,22.45
2022-10-28T19:31:24.891Z,39.95
2022-10-28T19:33:55.163Z,31.98
2022-10-28T19:36:25.015Z,36.35
2022-10-28T19:38:54.364Z,26.63
2022-10-28T19:41:24.488Z,19.63
2022-10-28T19:43:57.842Z,30.55
2022-10-28T19:46:27.710Z,29.50
2022-10-28T19:48:59.529Z,18.55
2022-10-28T19:51:29.330Z,24.20
2022-10-28T19:53:58.593Z,17.83
2022-10-28T19:56:27.416Z,23.65
2022-10-28T19:58:57.760Z,20.38
2022-10-28T20:01:28.735Z,35.63
2022-10-28T20:03:58.228Z,35.25
2022-10-28T20:06:27.991Z,24.58
2022-10-28T20:08:55.829Z,26.60
2022-10-28T20:11:26.604Z,18.35
2022-10-28T20:13:55.275Z,21.00
2022-10-28T20:16:23.788Z,21.15
2022-10-28T20:18:51.776Z,32.88
2022-10-28T20:21:22.939Z,21.15
2022-10-28T20:23:54.572Z,19.52
2022-10-28T20:26:24.473Z,17.35
2022-10-28T20:28:52.679Z,21.63
2022-10-28T20:31:22.362Z,20.27
2022-10-28T20:33:52.788Z,23.02
2022-10-28T20:36:25.513Z,30.50
2022-10-28T20:38:57.590Z,27.23
2022-10-28T20:41:26.604Z,17.30
2022-10-28T20:43:55.437Z,18.05
2022-10-28T20:46:25.614Z,17.85
2022-10-28T20:48:54.596Z,23.20
2022-10-28T20:51:25.714Z,19.08
2022-10-28T20:53:54.539Z,21.98
2022-10-28T20:56:24.387Z,31.20
2022-10-28T20:58:53.041Z,19.70
2022-10-28T21:01:22.995Z,24.38
2022-10-28T21:03:54.877Z,13.57
2022-10-28T21:06:25.614Z,14.00
2022-10-28T21:08:54.570Z,14.48
2022-10-28T21:11:23.899Z,20.30
2022-10-28T21:13:53.545Z,23.33
2022-10-28T21:16:22.905Z,27.42
2022-10-28T21:18:51.610Z,18.83
2022-10-28T21:21:20.271Z,22.45
2022-10-28T21:23:49.881Z,24.95
2022-10-28T21:26:18.038Z,18.60
2022-10-28T21:28:49.873Z,18.50
2022-10-28T21:31:18.785Z,20.73
2022-10-28T21:33:47.465Z,25.27
2022-10-28T21:36:17.282Z,12.85
2022-10-28T21:38:46.184Z,20.33
2022-10-28T21:41:17.140Z,22.58
2022-10-28T21:43:47.673Z,18.88
2022-10-28T21:46:16.093Z,16.38
2022-10-28T21:48:46.770Z,22.90
2022-10-28T21:51:16.946Z,21.00
2022-10-28T21:53:45.785Z,18.20
2022-10-28T21:56:18.776Z,26.50
2022-10-28T21:58:49.061Z,24.38
2022-10-28T22:01:19.008Z,19.80
2022-10-28T22:03:46.907Z,21.13
2022-10-28T22:06:15.240Z,28.10
2022-10-28T22:08:43.143Z,19.42
2022-10-28T22:11:13.607Z,19.40
2022-10-28T22:13:43.087Z,21.02
2022-10-28T22:16:15.359Z,25.17
2022-10-28T22:18:44.535Z,16.00
2022-10-28T22:21:14.907Z,21.25
2022-10-28T22:23:43.452Z,15.27
2022-10-28T22:26:13.739Z,19.73
2022-10-28T22:28:43.654Z,15.63
2022-10-28T22:31:13.471Z,23.55
2022-10-28T22:33:41.544Z,17.58
2022-10-28T22:36:13.295Z,13.68
2022-10-28T22:38:41.890Z,9.57
2022-10-28T22:41:14.288Z,21.27
2022-10-28T22:43:45.118Z,18.63
2022-10-28T22:46:14.888Z,14.27
2022-10-28T22:48:42.736Z,17.25
2022-10-28T22:51:11.181Z,30.02
2022-10-28T22:53:39.848Z,20.80
2022-10-28T22:56:09.443Z,23.98
2022-10-28T22:58:37.551Z,23.35
2022-10-28T23:01:07.939Z,19.60
2022-10-28T23:03:37.000Z,12.52
2022-10-28T23:06:05.479Z,21.02
2022-10-28T23:08:33.705Z,21.33
2022-10-28T23:11:01.702Z,18.75
2022-10-28T23:13:29.570Z,24.90
2022-10-28T23:15:57.459Z,16.40
2022-10-28T23:18:28.910Z,20.40
2022-10-28T23:20:56.750Z,24.77
2022-10-28T23:23:24.715Z,14.88
2022-10-28T23:25:53.629Z,23.02
2022-10-28T23:28:21.795Z,19.50
2022-10-28T23:30:49.655Z,20.75
2022-10-28T23:33:17.540Z,25.27
2022-10-28T23:35:54.995Z,19.85
2022-10-28T23:38:23.015Z,24.30
2022-10-28T23:40:58.386Z,25.42
2022-10-28T23:43:26.879Z,21.95
2022-10-28T23:45:55.815Z,26.52
2022-10-28T23:48:24.254Z,20.30
2022-10-28T23:50:53.878Z,17.77
2022-10-28T23:53:22.707Z,26.70
2022-10-28T23:55:51.607Z,22.25
2022-10-28T23:58:20.958Z,16.60
